sensor_id;sensor_type;location;lat;lon;timestamp;P1;durP1;ratioP1;P2;durP2;ratioP2
10719;SDS011;5411;58.386;15.560;2022-11-18T00:01:20;4.63;;;1.50;;
10719;SDS011;5411;58.386;15.560;2022-11-18T00:03:49;1.83;;;1.60;;
10719;SDS011;5411;58.386;15.560;2022-11-18T00:06:18;1.20;;;1.10;;
10719;SDS011;5411;58.386;15.560;2022-11-18T00:08:48;1.50;;;1.40;;
10719;SDS011;5411;58.386;15.560;2022-11-18T00:11:17;1.50;;;1.40;;
10719;SDS011;5411;58.386;15.560;2022-11-18T00:14:02;1.60;;;1.50;;
10719;SDS011;5411;58.386;15.560;2022-11-18T00:16:48;2.00;;;1.50;;
10719;SDS011;5411;58.386;15.560;2022-11-18T00:19:18;1.50;;;1.40;;
10719;SDS011;5411;58.386;15.560;2022-11-18T00:21:47;1.30;;;1.20;;
10719;SDS011;5411;58.386;15.560;2022-11-18T00:24:15;2.87;;;1.80;;
10719;SDS011;5411;58.386;15.560;2022-11-18T00:26:43;1.80;;;1.70;;
10719;SDS011;5411;58.386;15.560;2022-11-18T00:29:13;1.93;;;1.70;;
10719;SDS011;5411;58.386;15.560;2022-11-18T00:31:42;2.63;;;1.60;;
10719;SDS011;5411;58.386;15.560;2022-11-18T00:34:11;1.93;;;1.40;;
10719;SDS011;5411;58.386;15.560;2022-11-18T00:36:41;1.47;;;1.37;;
10719;SDS011;5411;58.386;15.560;2022-11-18T00:39:12;1.87;;;1.43;;
10719;SDS011;5411;58.386;15.560;2022-11-18T00:41:42;2.00;;;1.80;;
10719;SDS011;5411;58.386;15.560;2022-11-18T00:44:30;1.50;;;1.40;;
10719;SDS011;5411;58.386;15.560;2022-11-18T00:46:58;1.47;;;1.37;;
10719;SDS011;5411;58.386;15.560;2022-11-18T00:49:26;4.27;;;1.80;;
10719;SDS011;5411;58.386;15.560;2022-11-18T00:51:54;1.93;;;1.63;;
10719;SDS011;5411;58.386;15.560;2022-11-18T00:54:22;1.90;;;1.57;;
10719;SDS011;5411;58.386;15.560;2022-11-18T00:56:50;1.57;;;1.47;;
10719;SDS011;5411;58.386;15.560;2022-11-18T00:59:18;1.50;;;1.40;;
10719;SDS011;5411;58.386;15.560;2022-11-18T01:01:48;1.50;;;1.40;;
10719;SDS011;5411;58.386;15.560;2022-11-18T01:04:16;2.73;;;1.77;;
10719;SDS011;5411;58.386;15.560;2022-11-18T01:06:45;2.17;;;1.97;;
10719;SDS011;5411;58.386;15.560;2022-11-18T01:09:17;1.53;;;1.40;;
10719;SDS011;5411;58.386;15.560;2022-11-18T01:11:45;3.47;;;1.90;;
10719;SDS011;5411;58.386;15.560;2022-11-18T01:14:31;1.83;;;1.60;;
10719;SDS011;5411;58.386;15.560;2022-11-18T01:17:00;1.60;;;1.50;;
10719;SDS011;5411;58.386;15.560;2022-11-18T01:19:28;1.50;;;1.40;;
10719;SDS011;5411;58.386;15.560;2022-11-18T01:21:56;2.47;;;2.27;;
10719;SDS011;5411;58.386;15.560;2022-11-18T01:24:28;2.30;;;1.70;;
10719;SDS011;5411;58.386;15.560;2022-11-18T01:26:57;2.17;;;1.67;;
10719;SDS011;5411;58.386;15.560;2022-11-18T01:29:25;1.67;;;1.57;;
10719;SDS011;5411;58.386;15.560;2022-11-18T01:31:53;2.43;;;2.30;;
10719;SDS011;5411;58.386;15.560;2022-11-18T01:34:42;1.80;;;1.60;;
10719;SDS011;5411;58.386;15.560;2022-11-18T01:37:10;2.10;;;2.00;;
10719;SDS011;5411;58.386;15.560;2022-11-18T01:39:40;2.57;;;1.83;;
10719;SDS011;5411;58.386;15.560;2022-11-18T01:42:10;2.23;;;2.03;;
10719;SDS011;5411;58.386;15.560;2022-11-18T01:45:01;2.00;;;1.80;;
10719;SDS011;5411;58.386;15.560;2022-11-18T01:47:36;2.37;;;2.17;;
10719;SDS011;5411;58.386;15.560;2022-11-18T01:50:10;1.63;;;1.53;;
10719;SDS011;5411;58.386;15.560;2022-11-18T01:52:41;3.90;;;2.20;;
10719;SDS011;5411;58.386;15.560;2022-11-18T01:55:17;1.80;;;1.70;;
10719;SDS011;5411;58.386;15.560;2022-11-18T01:57:49;2.97;;;1.83;;
10719;SDS011;5411;58.386;15.560;2022-11-18T02:00:24;1.77;;;1.67;;
10719;SDS011;5411;58.386;15.560;2022-11-18T02:02:52;2.33;;;2.00;;
10719;SDS011;5411;58.386;15.560;2022-11-18T02:05:22;2.50;;;2.30;;
10719;SDS011;5411;58.386;15.560;2022-11-18T02:07:52;2.07;;;1.87;;
10719;SDS011;5411;58.386;15.560;2022-11-18T02:10:30;2.10;;;1.90;;
10719;SDS011;5411;58.386;15.560;2022-11-18T02:12:58;3.50;;;1.93;;
10719;SDS011;5411;58.386;15.560;2022-11-18T02:15:34;2.70;;;2.10;;
10719;SDS011;5411;58.386;15.560;2022-11-18T02:18:11;3.27;;;2.43;;
10719;SDS011;5411;58.386;15.560;2022-11-18T02:20:45;2.17;;;1.97;;
10719;SDS011;5411;58.386;15.560;2022-11-18T02:29:21;2.30;;;2.10;;
10719;SDS011;5411;58.386;15.560;2022-11-18T02:31:54;5.43;;;2.23;;
10719;SDS011;5411;58.386;15.560;2022-11-18T02:34:39;1.60;;;1.50;;
10719;SDS011;5411;58.386;15.560;2022-11-18T02:37:15;2.97;;;1.90;;
10719;SDS011;5411;58.386;15.560;2022-11-18T02:39:50;2.37;;;2.13;;
10719;SDS011;5411;58.386;15.560;2022-11-18T02:42:21;2.43;;;1.73;;
10719;SDS011;5411;58.386;15.560;2022-11-18T02:44:54;2.97;;;2.17;;
10719;SDS011;5411;58.386;15.560;2022-11-18T02:47:26;4.47;;;1.93;;
10719;SDS011;5411;58.386;15.560;2022-11-18T02:49:57;3.20;;;1.93;;
10719;SDS011;5411;58.386;15.560;2022-11-18T02:52:30;1.97;;;1.77;;
10719;SDS011;5411;58.386;15.560;2022-11-18T02:55:02;2.40;;;2.20;;
10719;SDS011;5411;58.386;15.560;2022-11-18T02:57:34;2.93;;;2.10;;
10719;SDS011;5411;58.386;15.560;2022-11-18T03:00:07;2.87;;;2.10;;
10719;SDS011;5411;58.386;15.560;2022-11-18T03:02:40;3.10;;;2.27;;
10719;SDS011;5411;58.386;15.560;2022-11-18T03:05:12;2.30;;;2.10;;
10719;SDS011;5411;58.386;15.560;2022-11-18T03:07:45;2.60;;;1.93;;
10719;SDS011;5411;58.386;15.560;2022-11-18T03:10:18;2.07;;;1.87;;
10719;SDS011;5411;58.386;15.560;2022-11-18T03:12:51;2.70;;;2.50;;
10719;SDS011;5411;58.386;15.560;2022-11-18T03:15:32;3.10;;;2.27;;
10719;SDS011;5411;58.386;15.560;2022-11-18T03:18:10;2.53;;;1.87;;
10719;SDS011;5411;58.386;15.560;2022-11-18T03:20:45;2.30;;;1.93;;
10719;SDS011;5411;58.386;15.560;2022-11-18T03:23:19;3.17;;;2.27;;
10719;SDS011;5411;58.386;15.560;2022-11-18T03:25:54;3.80;;;2.50;;
10719;SDS011;5411;58.386;15.560;2022-11-18T03:28:26;3.40;;;1.97;;
10719;SDS011;5411;58.386;15.560;2022-11-18T03:31:03;2.93;;;2.40;;
10719;SDS011;5411;58.386;15.560;2022-11-18T03:33:36;2.63;;;2.00;;
10719;SDS011;5411;58.386;15.560;2022-11-18T03:36:11;2.20;;;2.00;;
10719;SDS011;5411;58.386;15.560;2022-11-18T03:38:43;2.37;;;2.17;;
10719;SDS011;5411;58.386;15.560;2022-11-18T03:41:15;2.50;;;2.30;;
10719;SDS011;5411;58.386;15.560;2022-11-18T03:43:46;2.50;;;2.23;;
10719;SDS011;5411;58.386;15.560;2022-11-18T03:46:22;2.10;;;1.90;;
10719;SDS011;5411;58.386;15.560;2022-11-18T03:48:54;2.50;;;1.73;;
10719;SDS011;5411;58.386;15.560;2022-11-18T03:51:27;2.60;;;2.10;;
10719;SDS011;5411;58.386;15.560;2022-11-18T03:54:01;2.90;;;1.87;;
10719;SDS011;5411;58.386;15.560;2022-11-18T03:56:34;2.87;;;2.10;;
10719;SDS011;5411;58.386;15.560;2022-11-18T03:59:09;2.47;;;1.73;;
10719;SDS011;5411;58.386;15.560;2022-11-18T04:01:44;4.97;;;2.40;;
10719;SDS011;5411;58.386;15.560;2022-11-18T04:04:19;1.70;;;1.43;;
10719;SDS011;5411;58.386;15.560;2022-11-18T04:06:48;4.67;;;2.47;;
10719;SDS011;5411;58.386;15.560;2022-11-18T04:09:21;2.33;;;1.77;;
10719;SDS011;5411;58.386;15.560;2022-11-18T04:11:53;2.30;;;2.10;;
10719;SDS011;5411;58.386;15.560;2022-11-18T04:14:31;3.20;;;1.70;;
10719;SDS011;5411;58.386;15.560;2022-11-18T04:17:06;3.60;;;1.90;;
10719;SDS011;5411;58.386;15.560;2022-11-18T04:19:35;3.90;;;2.10;;
10719;SDS011;5411;58.386;15.560;2022-11-18T04:22:04;2.40;;;2.00;;
10719;SDS011;5411;58.386;15.560;2022-11-18T04:24:32;3.93;;;1.90;;
10719;SDS011;5411;58.386;15.560;2022-11-18T04:27:00;6.73;;;2.50;;
10719;SDS011;5411;58.386;15.560;2022-11-18T04:29:29;3.20;;;1.77;;
10719;SDS011;5411;58.386;15.560;2022-11-18T04:31:59;2.60;;;2.27;;
10719;SDS011;5411;58.386;15.560;2022-11-18T04:34:29;3.73;;;2.17;;
10719;SDS011;5411;58.386;15.560;2022-11-18T04:37:00;2.90;;;1.93;;
10719;SDS011;5411;58.386;15.560;2022-11-18T04:39:28;3.73;;;2.10;;
10719;SDS011;5411;58.386;15.560;2022-11-18T04:41:56;2.90;;;2.10;;
10719;SDS011;5411;58.386;15.560;2022-11-18T04:44:25;2.33;;;2.10;;
10719;SDS011;5411;58.386;15.560;2022-11-18T04:46:55;2.33;;;2.10;;
10719;SDS011;5411;58.386;15.560;2022-11-18T04:49:25;2.53;;;1.80;;
10719;SDS011;5411;58.386;15.560;2022-11-18T04:51:54;3.73;;;2.00;;
10719;SDS011;5411;58.386;15.560;2022-11-18T04:54:23;2.30;;;2.10;;
10719;SDS011;5411;58.386;15.560;2022-11-18T04:56:52;3.03;;;2.17;;
10719;SDS011;5411;58.386;15.560;2022-11-18T04:59:22;2.47;;;2.20;;
10719;SDS011;5411;58.386;15.560;2022-11-18T05:01:51;3.53;;;2.37;;
10719;SDS011;5411;58.386;15.560;2022-11-18T05:04:20;2.37;;;1.97;;
10719;SDS011;5411;58.386;15.560;2022-11-18T05:06:49;5.97;;;2.40;;
10719;SDS011;5411;58.386;15.560;2022-11-18T05:09:19;3.23;;;1.60;;
10719;SDS011;5411;58.386;15.560;2022-11-18T05:11:54;2.30;;;1.70;;
10719;SDS011;5411;58.386;15.560;2022-11-18T05:14:39;2.27;;;2.07;;
10719;SDS011;5411;58.386;15.560;2022-11-18T05:17:15;2.47;;;1.60;;
10719;SDS011;5411;58.386;15.560;2022-11-18T05:19:43;2.10;;;1.43;;
10719;SDS011;5411;58.386;15.560;2022-11-18T05:22:11;2.93;;;1.50;;
10719;SDS011;5411;58.386;15.560;2022-11-18T05:24:40;1.93;;;1.43;;
10719;SDS011;5411;58.386;15.560;2022-11-18T05:27:08;2.17;;;1.70;;
10719;SDS011;5411;58.386;15.560;2022-11-18T05:29:37;1.77;;;1.67;;
10719;SDS011;5411;58.386;15.560;2022-11-18T05:32:05;2.23;;;1.50;;
10719;SDS011;5411;58.386;15.560;2022-11-18T05:34:33;2.03;;;1.53;;
10719;SDS011;5411;58.386;15.560;2022-11-18T05:37:03;1.50;;;1.40;;
10719;SDS011;5411;58.386;15.560;2022-11-18T05:39:31;2.30;;;1.63;;
10719;SDS011;5411;58.386;15.560;2022-11-18T05:42:00;1.60;;;1.50;;
10719;SDS011;5411;58.386;15.560;2022-11-18T05:44:47;2.63;;;1.20;;
10719;SDS011;5411;58.386;15.560;2022-11-18T05:47:23;4.30;;;1.50;;
10719;SDS011;5411;58.386;15.560;2022-11-18T05:49:52;1.63;;;1.30;;
10719;SDS011;5411;58.386;15.560;2022-11-18T05:52:20;1.60;;;1.50;;
10719;SDS011;5411;58.386;15.560;2022-11-18T05:54:49;2.00;;;1.63;;
10719;SDS011;5411;58.386;15.560;2022-11-18T05:57:19;5.40;;;2.10;;
10719;SDS011;5411;58.386;15.560;2022-11-18T05:59:47;2.17;;;1.40;;
10719;SDS011;5411;58.386;15.560;2022-11-18T06:02:16;2.43;;;1.30;;
10719;SDS011;5411;58.386;15.560;2022-11-18T06:04:47;3.80;;;1.50;;
10719;SDS011;5411;58.386;15.560;2022-11-18T06:07:20;2.37;;;1.30;;
10719;SDS011;5411;58.386;15.560;2022-11-18T06:09:51;1.73;;;1.10;;
10719;SDS011;5411;58.386;15.560;2022-11-18T06:12:32;2.17;;;1.20;;
10719;SDS011;5411;58.386;15.560;2022-11-18T06:15:04;2.80;;;1.50;;
10719;SDS011;5411;58.386;15.560;2022-11-18T06:17:39;3.00;;;1.60;;
10719;SDS011;5411;58.386;15.560;2022-11-18T06:20:11;2.90;;;1.80;;
10719;SDS011;5411;58.386;15.560;2022-11-18T06:22:39;1.47;;;1.37;;
10719;SDS011;5411;58.386;15.560;2022-11-18T06:25:12;1.50;;;1.40;;
10719;SDS011;5411;58.386;15.560;2022-11-18T06:27:42;2.27;;;1.50;;
10719;SDS011;5411;58.386;15.560;2022-11-18T06:30:11;2.93;;;1.50;;
10719;SDS011;5411;58.386;15.560;2022-11-18T06:32:43;2.93;;;1.27;;
10719;SDS011;5411;58.386;15.560;2022-11-18T06:35:12;2.50;;;1.77;;
10719;SDS011;5411;58.386;15.560;2022-11-18T06:37:41;1.60;;;1.50;;
10719;SDS011;5411;58.386;15.560;2022-11-18T06:40:09;2.40;;;1.80;;
10719;SDS011;5411;58.386;15.560;2022-11-18T06:42:38;2.33;;;1.90;;
10719;SDS011;5411;58.386;15.560;2022-11-18T06:45:25;1.90;;;1.67;;
10719;SDS011;5411;58.386;15.560;2022-11-18T06:47:55;4.57;;;1.87;;
10719;SDS011;5411;58.386;15.560;2022-11-18T06:50:22;2.00;;;1.80;;
10719;SDS011;5411;58.386;15.560;2022-11-18T06:52:51;4.63;;;1.70;;
10719;SDS011;5411;58.386;15.560;2022-11-18T06:55:19;2.40;;;2.17;;
10719;SDS011;5411;58.386;15.560;2022-11-18T06:57:47;4.57;;;2.10;;
10719;SDS011;5411;58.386;15.560;2022-11-18T07:00:16;3.83;;;2.03;;
10719;SDS011;5411;58.386;15.560;2022-11-18T07:02:46;3.03;;;2.33;;
10719;SDS011;5411;58.386;15.560;2022-11-18T07:05:14;2.30;;;1.93;;
10719;SDS011;5411;58.386;15.560;2022-11-18T07:07:42;3.53;;;2.20;;
10719;SDS011;5411;58.386;15.560;2022-11-18T07:10:10;5.20;;;2.00;;
10719;SDS011;5411;58.386;15.560;2022-11-18T07:12:39;2.83;;;2.00;;
10719;SDS011;5411;58.386;15.560;2022-11-18T07:15:08;2.93;;;1.97;;
10719;SDS011;5411;58.386;15.560;2022-11-18T07:17:36;1.80;;;1.50;;
10719;SDS011;5411;58.386;15.560;2022-11-18T07:20:20;2.37;;;1.67;;
10719;SDS011;5411;58.386;15.560;2022-11-18T07:22:50;2.33;;;2.03;;
10719;SDS011;5411;58.386;15.560;2022-11-18T07:25:19;4.07;;;2.00;;
10719;SDS011;5411;58.386;15.560;2022-11-18T07:27:47;2.63;;;1.90;;
10719;SDS011;5411;58.386;15.560;2022-11-18T07:30:16;2.20;;;1.60;;
10719;SDS011;5411;58.386;15.560;2022-11-18T07:32:44;3.00;;;2.20;;
10719;SDS011;5411;58.386;15.560;2022-11-18T07:35:13;3.63;;;1.93;;
10719;SDS011;5411;58.386;15.560;2022-11-18T07:37:45;3.03;;;2.03;;
10719;SDS011;5411;58.386;15.560;2022-11-18T07:40:13;2.97;;;1.60;;
10719;SDS011;5411;58.386;15.560;2022-11-18T07:42:41;3.10;;;2.07;;
10719;SDS011;5411;58.386;15.560;2022-11-18T07:45:09;2.10;;;1.80;;
10719;SDS011;5411;58.386;15.560;2022-11-18T07:47:38;1.90;;;1.80;;
10719;SDS011;5411;58.386;15.560;2022-11-18T07:50:06;2.00;;;1.83;;
10719;SDS011;5411;58.386;15.560;2022-11-18T07:52:34;1.70;;;1.60;;
10719;SDS011;5411;58.386;15.560;2022-11-18T07:55:04;2.63;;;2.17;;
10719;SDS011;5411;58.386;15.560;2022-11-18T07:57:33;3.17;;;1.90;;
10719;SDS011;5411;58.386;15.560;2022-11-18T08:00:01;1.90;;;1.60;;
10719;SDS011;5411;58.386;15.560;2022-11-18T08:02:29;3.50;;;1.93;;
10719;SDS011;5411;58.386;15.560;2022-11-18T08:04:57;2.37;;;2.17;;
10719;SDS011;5411;58.386;15.560;2022-11-18T08:07:25;2.43;;;1.70;;
10719;SDS011;5411;58.386;15.560;2022-11-18T08:09:54;2.53;;;2.10;;
10719;SDS011;5411;58.386;15.560;2022-11-18T08:12:23;1.87;;;1.77;;
10719;SDS011;5411;58.386;15.560;2022-11-18T08:14:51;1.80;;;1.70;;
10719;SDS011;5411;58.386;15.560;2022-11-18T08:17:19;2.40;;;1.93;;
10719;SDS011;5411;58.386;15.560;2022-11-18T08:19:47;3.07;;;2.00;;
10719;SDS011;5411;58.386;15.560;2022-11-18T08:22:16;3.57;;;2.17;;
10719;SDS011;5411;58.386;15.560;2022-11-18T08:24:46;2.53;;;1.83;;
10719;SDS011;5411;58.386;15.560;2022-11-18T08:27:14;3.00;;;2.13;;
10719;SDS011;5411;58.386;15.560;2022-11-18T08:29:44;1.60;;;1.50;;
10719;SDS011;5411;58.386;15.560;2022-11-18T08:32:12;2.47;;;1.50;;
10719;SDS011;5411;58.386;15.560;2022-11-18T08:34:40;2.60;;;1.90;;
10719;SDS011;5411;58.386;15.560;2022-11-18T08:37:09;1.70;;;1.60;;
10719;SDS011;5411;58.386;15.560;2022-11-18T08:39:38;2.17;;;1.97;;
10719;SDS011;5411;58.386;15.560;2022-11-18T08:42:07;2.73;;;2.10;;
10719;SDS011;5411;58.386;15.560;2022-11-18T08:44:35;2.47;;;2.10;;
10719;SDS011;5411;58.386;15.560;2022-11-18T08:47:05;2.53;;;1.83;;
10719;SDS011;5411;58.386;15.560;2022-11-18T08:49:33;2.47;;;1.90;;
10719;SDS011;5411;58.386;15.560;2022-11-18T08:52:01;2.40;;;2.20;;
10719;SDS011;5411;58.386;15.560;2022-11-18T08:54:29;2.17;;;2.00;;
10719;SDS011;5411;58.386;15.560;2022-11-18T08:56:58;4.83;;;1.97;;
10719;SDS011;5411;58.386;15.560;2022-11-18T08:59:26;2.93;;;2.10;;
10719;SDS011;5411;58.386;15.560;2022-11-18T09:01:54;4.50;;;2.10;;
10719;SDS011;5411;58.386;15.560;2022-11-18T09:04:23;2.33;;;2.13;;
10719;SDS011;5411;58.386;15.560;2022-11-18T09:06:52;2.23;;;1.87;;
10719;SDS011;5411;58.386;15.560;2022-11-18T09:09:20;2.83;;;1.80;;
10719;SDS011;5411;58.386;15.560;2022-11-18T09:11:48;5.03;;;2.57;;
10719;SDS011;5411;58.386;15.560;2022-11-18T09:14:17;2.60;;;2.00;;
10719;SDS011;5411;58.386;15.560;2022-11-18T09:17:05;2.30;;;2.10;;
10719;SDS011;5411;58.386;15.560;2022-11-18T09:19:34;2.30;;;2.10;;
10719;SDS011;5411;58.386;15.560;2022-11-18T09:22:13;2.23;;;2.03;;
10719;SDS011;5411;58.386;15.560;2022-11-18T09:24:41;2.40;;;2.13;;
10719;SDS011;5411;58.386;15.560;2022-11-18T09:27:10;3.23;;;1.93;;
10719;SDS011;5411;58.386;15.560;2022-11-18T09:29:42;2.13;;;1.60;;
10719;SDS011;5411;58.386;15.560;2022-11-18T09:32:10;2.20;;;2.00;;
10719;SDS011;5411;58.386;15.560;2022-11-18T09:34:40;2.57;;;2.00;;
10719;SDS011;5411;58.386;15.560;2022-11-18T09:37:08;2.30;;;2.10;;
10719;SDS011;5411;58.386;15.560;2022-11-18T09:39:36;2.00;;;1.70;;
10719;SDS011;5411;58.386;15.560;2022-11-18T09:42:13;2.83;;;1.80;;
10719;SDS011;5411;58.386;15.560;2022-11-18T09:44:53;2.97;;;2.13;;
10719;SDS011;5411;58.386;15.560;2022-11-18T09:47:38;1.90;;;1.60;;
10719;SDS011;5411;58.386;15.560;2022-11-18T09:50:10;2.30;;;2.10;;
10719;SDS011;5411;58.386;15.560;2022-11-18T09:53:03;2.33;;;2.13;;
10719;SDS011;5411;58.386;15.560;2022-11-18T09:55:41;2.30;;;2.10;;
10719;SDS011;5411;58.386;15.560;2022-11-18T09:58:10;3.70;;;2.17;;
10719;SDS011;5411;58.386;15.560;2022-11-18T10:00:42;3.90;;;2.13;;
10719;SDS011;5411;58.386;15.560;2022-11-18T10:03:12;2.40;;;2.13;;
10719;SDS011;5411;58.386;15.560;2022-11-18T10:05:51;2.50;;;2.30;;
10719;SDS011;5411;58.386;15.560;2022-11-18T10:08:26;3.07;;;2.57;;
10719;SDS011;5411;58.386;15.560;2022-11-18T10:10:59;2.90;;;2.27;;
10719;SDS011;5411;58.386;15.560;2022-11-18T10:13:37;3.37;;;2.80;;
10719;SDS011;5411;58.386;15.560;2022-11-18T10:16:21;3.20;;;2.90;;
10719;SDS011;5411;58.386;15.560;2022-11-18T10:19:00;2.83;;;2.63;;
10719;SDS011;5411;58.386;15.560;2022-11-18T10:21:39;2.77;;;1.97;;
10719;SDS011;5411;58.386;15.560;2022-11-18T10:24:18;3.30;;;2.33;;
10719;SDS011;5411;58.386;15.560;2022-11-18T10:26:49;3.50;;;2.17;;
10719;SDS011;5411;58.386;15.560;2022-11-18T10:29:22;4.67;;;2.80;;
10719;SDS011;5411;58.386;15.560;2022-11-18T10:31:55;4.07;;;2.70;;
10719;SDS011;5411;58.386;15.560;2022-11-18T10:34:30;2.43;;;2.20;;
10719;SDS011;5411;58.386;15.560;2022-11-18T10:37:02;2.87;;;2.50;;
10719;SDS011;5411;58.386;15.560;2022-11-18T10:39:31;3.10;;;2.50;;
10719;SDS011;5411;58.386;15.560;2022-11-18T10:42:00;3.40;;;2.03;;
10719;SDS011;5411;58.386;15.560;2022-11-18T10:44:35;4.07;;;2.70;;
10719;SDS011;5411;58.386;15.560;2022-11-18T10:47:14;3.70;;;2.43;;
10719;SDS011;5411;58.386;15.560;2022-11-18T10:49:53;3.77;;;2.63;;
10719;SDS011;5411;58.386;15.560;2022-11-18T10:52:24;1.97;;;1.80;;
10719;SDS011;5411;58.386;15.560;2022-11-18T10:55:07;2.67;;;2.00;;
10719;SDS011;5411;58.386;15.560;2022-11-18T10:57:54;1.73;;;1.63;;
10719;SDS011;5411;58.386;15.560;2022-11-18T11:00:35;4.27;;;1.90;;
10719;SDS011;5411;58.386;15.560;2022-11-18T11:03:26;1.70;;;1.60;;
10719;SDS011;5411;58.386;15.560;2022-11-18T11:09:01;3.20;;;1.97;;
10719;SDS011;5411;58.386;15.560;2022-11-18T11:11:34;2.40;;;1.80;;
10719;SDS011;5411;58.386;15.560;2022-11-18T11:14:06;1.67;;;1.57;;
10719;SDS011;5411;58.386;15.560;2022-11-18T11:16:46;2.60;;;1.80;;
10719;SDS011;5411;58.386;15.560;2022-11-18T11:19:20;3.03;;;1.70;;
10719;SDS011;5411;58.386;15.560;2022-11-18T11:21:53;2.47;;;1.53;;
10719;SDS011;5411;58.386;15.560;2022-11-18T11:24:25;2.43;;;1.97;;
10719;SDS011;5411;58.386;15.560;2022-11-18T11:27:02;1.73;;;1.63;;
10719;SDS011;5411;58.386;15.560;2022-11-18T11:30:07;2.90;;;1.80;;
10719;SDS011;5411;58.386;15.560;2022-11-18T11:32:56;1.80;;;1.70;;
10719;SDS011;5411;58.386;15.560;2022-11-18T11:35:54;2.83;;;1.80;;
10719;SDS011;5411;58.386;15.560;2022-11-18T11:38:34;1.70;;;1.60;;
10719;SDS011;5411;58.386;15.560;2022-11-18T11:41:12;2.10;;;1.87;;
10719;SDS011;5411;58.386;15.560;2022-11-18T11:43:50;1.87;;;1.63;;
10719;SDS011;5411;58.386;15.560;2022-11-18T11:46:36;2.97;;;1.90;;
10719;SDS011;5411;58.386;15.560;2022-11-18T11:49:37;2.40;;;1.90;;
10719;SDS011;5411;58.386;15.560;2022-11-18T11:52:17;1.60;;;1.50;;
10719;SDS011;5411;58.386;15.560;2022-11-18T11:54:59;1.73;;;1.63;;
10719;SDS011;5411;58.386;15.560;2022-11-18T11:57:39;1.60;;;1.50;;
10719;SDS011;5411;58.386;15.560;2022-11-18T12:00:21;2.60;;;1.30;;
10719;SDS011;5411;58.386;15.560;2022-11-18T12:02:54;2.07;;;1.20;;
10719;SDS011;5411;58.386;15.560;2022-11-18T12:05:28;5.60;;;1.43;;
10719;SDS011;5411;58.386;15.560;2022-11-18T12:08:00;1.77;;;1.00;;
10719;SDS011;5411;58.386;15.560;2022-11-18T12:10:34;2.07;;;1.17;;
10719;SDS011;5411;58.386;15.560;2022-11-18T12:13:24;2.50;;;1.13;;
10719;SDS011;5411;58.386;15.560;2022-11-18T12:16:09;1.60;;;1.27;;
10719;SDS011;5411;58.386;15.560;2022-11-18T12:18:45;2.23;;;1.43;;
10719;SDS011;5411;58.386;15.560;2022-11-18T12:24:27;2.50;;;1.33;;
10719;SDS011;5411;58.386;15.560;2022-11-18T12:27:02;3.50;;;1.10;;
10719;SDS011;5411;58.386;15.560;2022-11-18T12:29:37;1.67;;;1.57;;
10719;SDS011;5411;58.386;15.560;2022-11-18T12:32:29;1.57;;;1.30;;
10719;SDS011;5411;58.386;15.560;2022-11-18T12:35:03;1.57;;;1.47;;
10719;SDS011;5411;58.386;15.560;2022-11-18T12:37:58;2.43;;;1.40;;
10719;SDS011;5411;58.386;15.560;2022-11-18T12:40:38;1.83;;;1.43;;
10719;SDS011;5411;58.386;15.560;2022-11-18T12:55:15;3.13;;;1.10;;
10719;SDS011;5411;58.386;15.560;2022-11-18T12:57:47;1.70;;;1.43;;
10719;SDS011;5411;58.386;15.560;2022-11-18T13:00:25;2.70;;;1.40;;
10719;SDS011;5411;58.386;15.560;2022-11-18T13:03:26;1.73;;;1.40;;
10719;SDS011;5411;58.386;15.560;2022-11-18T13:05:58;2.77;;;1.60;;
10719;SDS011;5411;58.386;15.560;2022-11-18T13:08:28;2.10;;;1.60;;
10719;SDS011;5411;58.386;15.560;2022-11-18T13:10:58;2.47;;;1.80;;
10719;SDS011;5411;58.386;15.560;2022-11-18T13:13:52;2.50;;;1.40;;
10719;SDS011;5411;58.386;15.560;2022-11-18T13:16:42;2.03;;;1.57;;
10719;SDS011;5411;58.386;15.560;2022-11-18T13:19:31;2.20;;;2.00;;
10719;SDS011;5411;58.386;15.560;2022-11-18T13:22:00;1.80;;;1.57;;
10719;SDS011;5411;58.386;15.560;2022-11-18T13:24:47;1.70;;;1.60;;
10719;SDS011;5411;58.386;15.560;2022-11-18T13:27:22;3.10;;;1.90;;
10719;SDS011;5411;58.386;15.560;2022-11-18T13:30:00;1.20;;;1.10;;
10719;SDS011;5411;58.386;15.560;2022-11-18T13:32:30;1.67;;;1.50;;
10719;SDS011;5411;58.386;15.560;2022-11-18T13:35:06;2.67;;;1.43;;
10719;SDS011;5411;58.386;15.560;2022-11-18T13:37:47;1.63;;;1.30;;
10719;SDS011;5411;58.386;15.560;2022-11-18T13:40:21;2.77;;;1.70;;
10719;SDS011;5411;58.386;15.560;2022-11-18T13:42:53;1.50;;;1.40;;
10719;SDS011;5411;58.386;15.560;2022-11-18T13:45:22;3.47;;;1.47;;
10719;SDS011;5411;58.386;15.560;2022-11-18T13:47:54;1.73;;;1.47;;
10719;SDS011;5411;58.386;15.560;2022-11-18T13:50:30;5.60;;;1.70;;
10719;SDS011;5411;58.386;15.560;2022-11-18T13:53:04;2.43;;;1.87;;
10719;SDS011;5411;58.386;15.560;2022-11-18T13:55:42;2.53;;;1.80;;
10719;SDS011;5411;58.386;15.560;2022-11-18T13:58:22;2.13;;;1.47;;
10719;SDS011;5411;58.386;15.560;2022-11-18T14:01:16;4.00;;;1.53;;
10719;SDS011;5411;58.386;15.560;2022-11-18T14:03:48;3.23;;;1.40;;
10719;SDS011;5411;58.386;15.560;2022-11-18T14:06:27;1.50;;;1.40;;
10719;SDS011;5411;58.386;15.560;2022-11-18T14:09:11;3.07;;;1.33;;
10719;SDS011;5411;58.386;15.560;2022-11-18T14:11:46;1.53;;;1.43;;
10719;SDS011;5411;58.386;15.560;2022-11-18T14:14:27;1.20;;;1.17;;
10719;SDS011;5411;58.386;15.560;2022-11-18T14:17:04;1.33;;;1.20;;
10719;SDS011;5411;58.386;15.560;2022-11-18T14:19:43;1.50;;;1.40;;
10719;SDS011;5411;58.386;15.560;2022-11-18T14:22:15;4.47;;;1.80;;
10719;SDS011;5411;58.386;15.560;2022-11-18T14:24:52;1.60;;;1.50;;
10719;SDS011;5411;58.386;15.560;2022-11-18T14:27:28;1.50;;;1.37;;
10719;SDS011;5411;58.386;15.560;2022-11-18T14:33:06;1.67;;;1.30;;
10719;SDS011;5411;58.386;15.560;2022-11-18T14:35:48;2.93;;;1.33;;
10719;SDS011;5411;58.386;15.560;2022-11-18T14:38:22;1.90;;;1.13;;
10719;SDS011;5411;58.386;15.560;2022-11-18T14:41:09;1.23;;;1.10;;
10719;SDS011;5411;58.386;15.560;2022-11-18T14:43:39;2.03;;;1.27;;
10719;SDS011;5411;58.386;15.560;2022-11-18T14:46:13;1.10;;;1.10;;
10719;SDS011;5411;58.386;15.560;2022-11-18T14:48:43;1.30;;;1.20;;
10719;SDS011;5411;58.386;15.560;2022-11-18T14:51:12;1.30;;;1.20;;
10719;SDS011;5411;58.386;15.560;2022-11-18T14:53:42;3.47;;;1.20;;
10719;SDS011;5411;58.386;15.560;2022-11-18T14:56:12;1.43;;;1.33;;
10719;SDS011;5411;58.386;15.560;2022-11-18T14:58:45;1.57;;;1.23;;
10719;SDS011;5411;58.386;15.560;2022-11-18T15:01:13;1.50;;;1.40;;
10719;SDS011;5411;58.386;15.560;2022-11-18T15:03:41;3.63;;;1.30;;
10719;SDS011;5411;58.386;15.560;2022-11-18T15:06:11;4.53;;;1.30;;
10719;SDS011;5411;58.386;15.560;2022-11-18T15:08:42;1.20;;;1.10;;
10719;SDS011;5411;58.386;15.560;2022-11-18T15:11:12;1.00;;;1.00;;
10719;SDS011;5411;58.386;15.560;2022-11-18T15:13:41;2.07;;;1.20;;
10719;SDS011;5411;58.386;15.560;2022-11-18T15:16:10;1.30;;;1.20;;
10719;SDS011;5411;58.386;15.560;2022-11-18T15:18:42;2.77;;;1.43;;
10719;SDS011;5411;58.386;15.560;2022-11-18T15:21:11;4.00;;;1.40;;
10719;SDS011;5411;58.386;15.560;2022-11-18T15:23:47;1.37;;;1.20;;
10719;SDS011;5411;58.386;15.560;2022-11-18T15:26:17;1.40;;;1.30;;
10719;SDS011;5411;58.386;15.560;2022-11-18T15:28:48;2.37;;;1.43;;
10719;SDS011;5411;58.386;15.560;2022-11-18T15:31:17;1.53;;;1.10;;
10719;SDS011;5411;58.386;15.560;2022-11-18T15:33:50;1.00;;;1.00;;
10719;SDS011;5411;58.386;15.560;2022-11-18T15:36:21;2.53;;;1.70;;
10719;SDS011;5411;58.386;15.560;2022-11-18T15:38:52;1.77;;;1.30;;
10719;SDS011;5411;58.386;15.560;2022-11-18T15:41:22;1.27;;;1.20;;
10719;SDS011;5411;58.386;15.560;2022-11-18T15:43:52;0.90;;;0.90;;
10719;SDS011;5411;58.386;15.560;2022-11-18T15:46:22;1.10;;;1.10;;
10719;SDS011;5411;58.386;15.560;2022-11-18T15:48:51;1.67;;;1.00;;
10719;SDS011;5411;58.386;15.560;2022-11-18T15:51:21;1.30;;;1.20;;